createdAt,value
2022-08-03T00:02:18.645Z,5.68
2022-08-03T00:04:47.017Z,4.00
2022-08-03T00:07:15.578Z,3.72
2022-08-03T00:09:45.456Z,4.32
2022-08-03T00:12:13.982Z,3.75
2022-08-03T00:14:42.441Z,3.67
2022-08-03T00:17:10.993Z,3.78
2022-08-03T00:19:39.318Z,5.75
2022-08-03T00:22:07.755Z,4.95
2022-08-03T00:24:36.393Z,3.47
2022-08-03T00:27:06.275Z,3.30
2022-08-03T00:29:34.639Z,5.60
2022-08-03T00:32:24.731Z,3.70
2022-08-03T00:34:57.603Z,3.97
2022-08-03T00:37:41.357Z,4.95
2022-08-03T00:40:10.858Z,3.80
2022-08-03T00:42:50.585Z,3.85
2022-08-03T00:45:19.350Z,4.60
2022-08-03T00:47:48.096Z,4.35
2022-08-03T00:50:17.166Z,3.72
2022-08-03T00:52:45.853Z,3.92
2022-08-03T00:55:14.621Z,4.40
2022-08-03T00:57:43.902Z,4.95
2022-08-03T01:00:15.342Z,4.82
2022-08-03T01:02:43.935Z,4.00
2022-08-03T01:05:12.836Z,3.20
2022-08-03T01:07:48.296Z,5.05
2022-08-03T01:10:19.662Z,4.45
2022-08-03T01:12:52.719Z,4.25
2022-08-03T01:15:27.327Z,6.20
2022-08-03T01:17:57.815Z,4.40
2022-08-03T01:20:27.013Z,5.32
2022-08-03T01:23:22.596Z,5.32
2022-08-03T01:26:15.001Z,3.97
2022-08-03T01:28:58.706Z,5.45
2022-08-03T01:31:34.587Z,5.00
2022-08-03T01:34:24.580Z,4.65
2022-08-03T01:36:54.489Z,5.20
2022-08-03T01:39:22.970Z,3.67
2022-08-03T01:41:53.323Z,4.85
2022-08-03T01:44:28.687Z,3.55
2022-08-03T01:47:01.422Z,3.95
2022-08-03T01:49:30.499Z,5.00
2022-08-03T01:52:05.000Z,4.82
2022-08-03T01:54:34.912Z,3.50
2022-08-03T01:57:04.176Z,4.45
2022-08-03T01:59:34.294Z,4.53
2022-08-03T02:02:31.976Z,3.58
2022-08-03T02:04:54.803Z,4.40
2022-08-03T02:07:23.583Z,5.70
2022-08-03T02:09:52.800Z,3.67
2022-08-03T02:12:22.576Z,4.85
2022-08-03T02:14:52.026Z,5.95
2022-08-03T02:17:38.974Z,5.47
2022-08-03T02:20:09.182Z,5.43
2022-08-03T02:22:37.807Z,4.95
2022-08-03T02:25:06.454Z,3.55
2022-08-03T02:27:39.445Z,4.45
2022-08-03T02:30:12.632Z,3.95
2022-08-03T02:32:43.113Z,5.30
2022-08-03T02:35:15.036Z,5.82
2022-08-03T02:37:45.142Z,4.57
2022-08-03T02:40:19.932Z,4.93
2022-08-03T02:42:49.221Z,4.53
2022-08-03T02:45:19.621Z,4.40
2022-08-03T02:47:53.486Z,3.92
2022-08-03T02:50:24.593Z,4.00
2022-08-03T02:52:53.650Z,4.80
2022-08-03T02:55:22.630Z,4.22
2022-08-03T02:57:51.944Z,4.90
2022-08-03T03:00:28.457Z,4.78
2022-08-03T03:03:00.444Z,4.22
2022-08-03T03:05:54.837Z,3.97
2022-08-03T03:08:25.823Z,4.47
2022-08-03T03:10:55.638Z,4.93
2022-08-03T03:13:24.848Z,4.45
2022-08-03T03:15:53.932Z,3.55
2022-08-03T03:18:24.413Z,4.13
2022-08-03T03:20:53.476Z,3.70
2022-08-03T03:23:23.266Z,3.95
2022-08-03T03:25:51.962Z,4.47
2022-08-03T03:28:20.890Z,5.28
2022-08-03T03:30:52.673Z,3.80
2022-08-03T03:33:21.716Z,5.18
2022-08-03T03:35:52.821Z,4.15
2022-08-03T03:38:21.279Z,5.55
2022-08-03T03:40:50.298Z,3.85
2022-08-03T03:43:19.598Z,6.13
2022-08-03T03:45:49.308Z,6.70
2022-08-03T03:48:17.977Z,4.43
2022-08-03T03:50:46.370Z,4.40
2022-08-03T03:53:16.288Z,4.70
2022-08-03T03:56:02.208Z,4.95
2022-08-03T03:58:32.019Z,4.97
2022-08-03T04:01:00.544Z,4.05
2022-08-03T04:03:29.064Z,4.60
2022-08-03T04:06:15.195Z,4.20
2022-08-03T04:09:14.171Z,4.63
2022-08-03T04:11:45.227Z,4.43
2022-08-03T04:14:15.039Z,4.97
2022-08-03T04:16:44.577Z,5.22
2022-08-03T04:19:17.410Z,4.88
2022-08-03T04:21:49.965Z,5.45
2022-08-03T04:24:20.963Z,4.50
2022-08-03T04:26:55.208Z,4.82
2022-08-03T04:29:24.385Z,6.10
2022-08-03T04:31:53.672Z,6.90
2022-08-03T04:34:22.041Z,6.47
2022-08-03T04:36:51.928Z,8.38
2022-08-03T04:39:25.599Z,5.35
2022-08-03T04:42:04.733Z,7.00
2022-08-03T04:44:38.396Z,5.45
2022-08-03T04:47:06.785Z,5.40
2022-08-03T04:49:36.849Z,5.32
2022-08-03T04:52:05.549Z,5.72
2022-08-03T04:54:40.878Z,7.07
2022-08-03T04:57:09.269Z,4.30
2022-08-03T04:59:40.944Z,5.57
2022-08-03T05:02:09.719Z,4.90
2022-08-03T05:04:41.022Z,4.68
2022-08-03T05:07:12.394Z,5.32
2022-08-03T05:09:52.220Z,5.30
2022-08-03T05:12:28.394Z,6.03
2022-08-03T05:15:00.502Z,4.93
2022-08-03T05:17:29.433Z,6.43
2022-08-03T05:19:57.798Z,4.90
2022-08-03T05:22:26.148Z,5.90
2022-08-03T05:24:58.019Z,5.13
2022-08-03T05:27:26.577Z,6.30
2022-08-03T05:30:31.663Z,5.88
2022-08-03T05:32:46.451Z,5.53
2022-08-03T05:36:01.319Z,5.35
2022-08-03T05:38:06.012Z,6.18
2022-08-03T05:40:39.517Z,6.05
2022-08-03T05:43:25.043Z,7.07
2022-08-03T05:46:01.730Z,5.03
2022-08-03T05:48:43.370Z,6.13
2022-08-03T05:51:13.966Z,4.85
2022-08-03T05:53:42.687Z,5.90
2022-08-03T05:56:13.698Z,4.93
2022-08-03T05:58:44.458Z,7.70
2022-08-03T06:01:15.148Z,5.57
2022-08-03T06:03:43.647Z,5.25
2022-08-03T06:06:15.242Z,6.40
2022-08-03T06:08:46.912Z,5.65
2022-08-03T06:11:16.652Z,5.30
2022-08-03T06:13:47.810Z,4.68
2022-08-03T06:16:17.987Z,5.05
2022-08-03T06:18:46.384Z,5.53
2022-08-03T06:21:17.839Z,4.95
2022-08-03T06:23:54.320Z,5.63
2022-08-03T06:26:26.982Z,5.63
2022-08-03T06:28:55.672Z,6.45
2022-08-03T06:31:26.279Z,7.00
2022-08-03T06:34:32.917Z,5.13
2022-08-03T06:36:52.295Z,5.53
2022-08-03T06:39:21.088Z,5.15
2022-08-03T06:41:53.806Z,6.32
2022-08-03T06:44:22.149Z,7.07
2022-08-03T06:46:51.246Z,6.72
2022-08-03T06:49:20.100Z,6.68
2022-08-03T06:52:03.330Z,6.78
2022-08-03T06:54:35.807Z,6.30
2022-08-03T06:57:05.944Z,7.25
2022-08-03T07:00:10.768Z,8.00
2022-08-03T07:02:22.590Z,5.35
2022-08-03T07:04:52.031Z,4.97
2022-08-03T07:07:20.683Z,5.18
2022-08-03T07:09:56.587Z,6.68
2022-08-03T07:12:31.050Z,3.95
2022-08-03T07:15:01.846Z,4.78
2022-08-03T07:17:31.910Z,6.70
2022-08-03T07:20:00.586Z,4.78
2022-08-03T07:22:29.075Z,5.90
2022-08-03T07:24:57.678Z,4.13
2022-08-03T07:27:28.567Z,5.10
2022-08-03T07:29:58.717Z,3.88
2022-08-03T07:32:28.412Z,3.67
2022-08-03T07:35:00.585Z,5.07
2022-08-03T07:37:30.022Z,4.80
2022-08-03T07:39:58.640Z,5.53
2022-08-03T07:42:27.241Z,3.67
2022-08-03T07:44:55.612Z,3.45
2022-08-03T07:47:35.666Z,6.22
2022-08-03T07:50:04.310Z,3.55
2022-08-03T07:52:54.566Z,3.72
2022-08-03T07:55:23.483Z,3.67
2022-08-03T07:58:01.149Z,4.68
2022-08-03T08:00:29.711Z,3.78
2022-08-03T08:02:59.564Z,3.30
2022-08-03T08:05:28.094Z,4.30
2022-08-03T08:07:58.476Z,6.00
2022-08-03T08:10:27.039Z,4.55
2022-08-03T08:12:55.518Z,3.72
2022-08-03T08:15:23.968Z,4.30
2022-08-03T08:17:53.619Z,3.53
2022-08-03T08:20:27.990Z,6.63
2022-08-03T08:23:01.338Z,5.57
2022-08-03T08:25:30.839Z,3.90
2022-08-03T08:28:30.841Z,4.05
2022-08-03T08:30:50.454Z,3.90
2022-08-03T08:33:23.537Z,3.53
2022-08-03T08:35:54.422Z,3.28
2022-08-03T08:38:22.912Z,2.97
2022-08-03T08:40:51.380Z,3.05
2022-08-03T08:43:19.697Z,3.50
2022-08-03T08:45:48.859Z,3.65
2022-08-03T08:48:17.799Z,2.72
2022-08-03T08:50:46.570Z,2.58
2022-08-03T08:53:18.949Z,3.15
2022-08-03T08:55:58.469Z,2.85
2022-08-03T08:58:30.539Z,2.30
2022-08-03T09:00:59.030Z,2.70
2022-08-03T09:03:29.703Z,2.30
2022-08-03T09:05:59.398Z,3.70
2022-08-03T09:08:29.082Z,2.75
2022-08-03T09:10:57.469Z,3.03
2022-08-03T09:13:25.880Z,2.85
2022-08-03T09:16:09.057Z,3.60
2022-08-03T09:18:37.408Z,3.33
2022-08-03T09:21:30.710Z,3.95
2022-08-03T09:24:04.822Z,2.80
2022-08-03T09:26:35.658Z,4.53
2022-08-03T09:29:10.892Z,3.47
2022-08-03T09:31:43.215Z,2.70
2022-08-03T09:34:12.834Z,3.58
2022-08-03T09:36:43.168Z,2.67
2022-08-03T09:39:13.666Z,3.10
2022-08-03T09:41:42.694Z,5.50
2022-08-03T09:44:24.663Z,2.78
2022-08-03T09:46:54.504Z,4.25
2022-08-03T09:49:23.040Z,2.70
2022-08-03T09:52:31.584Z,3.55
2022-08-03T09:54:41.306Z,3.17
2022-08-03T09:57:09.741Z,3.13
2022-08-03T09:59:41.184Z,2.75
2022-08-03T10:02:22.149Z,2.63
2022-08-03T10:04:52.526Z,3.28
2022-08-03T10:07:21.378Z,3.05
2022-08-03T10:09:58.207Z,2.47
2022-08-03T10:12:48.817Z,2.78
2022-08-03T10:16:21.867Z,3.15
2022-08-03T10:18:06.484Z,3.95
2022-08-03T10:20:37.812Z,2.88
2022-08-03T10:23:07.013Z,2.67
2022-08-03T10:25:40.682Z,2.38
2022-08-03T10:28:11.439Z,2.90
2022-08-03T10:30:41.427Z,2.83
2022-08-03T10:33:52.121Z,3.65
2022-08-03T10:36:01.702Z,2.95
2022-08-03T10:38:31.505Z,3.65
2022-08-03T10:41:01.421Z,3.28
2022-08-03T10:43:34.071Z,2.85
2022-08-03T10:46:03.402Z,3.45
2022-08-03T10:48:32.027Z,3.00
2022-08-03T10:51:00.575Z,3.65
2022-08-03T10:53:39.119Z,2.55
2022-08-03T10:56:49.864Z,2.90
2022-08-03T10:59:27.603Z,2.80
2022-08-03T11:01:58.605Z,4.05
2022-08-03T11:04:29.424Z,2.58
2022-08-03T11:07:13.106Z,3.10
2022-08-03T11:09:42.968Z,3.25
2022-08-03T11:12:30.475Z,2.78
2022-08-03T11:15:01.469Z,2.67
2022-08-03T11:17:29.801Z,3.03
2022-08-03T11:19:58.616Z,2.92
2022-08-03T11:22:29.056Z,4.22
2022-08-03T11:25:04.516Z,3.40
2022-08-03T11:27:35.111Z,4.78
2022-08-03T11:30:04.727Z,2.60
2022-08-03T11:32:52.470Z,3.60
2022-08-03T11:35:21.880Z,2.80
2022-08-03T11:38:10.001Z,2.55
2022-08-03T11:40:42.052Z,3.63
2022-08-03T11:43:44.567Z,2.58
2022-08-03T11:46:29.875Z,3.08
2022-08-03T11:49:10.025Z,2.53
2022-08-03T11:51:43.455Z,3.50
2022-08-03T11:54:11.760Z,2.20
2022-08-03T11:56:49.911Z,3.72
2022-08-03T11:59:22.710Z,1.90
2022-08-03T12:01:53.478Z,1.98
2022-08-03T12:04:29.011Z,4.25
2022-08-03T12:07:00.795Z,2.45
2022-08-03T12:09:32.599Z,2.10
2022-08-03T12:12:05.288Z,1.95
2022-08-03T12:14:49.909Z,4.07
2022-08-03T12:17:20.694Z,2.70
2022-08-03T12:19:59.917Z,3.80
2022-08-03T12:22:33.278Z,2.67
2022-08-03T12:25:04.513Z,2.63
2022-08-03T12:27:35.648Z,2.80
2022-08-03T12:30:06.115Z,4.60
2022-08-03T12:32:34.447Z,2.95
2022-08-03T12:35:06.010Z,3.35
2022-08-03T12:37:34.617Z,2.40
2022-08-03T12:40:10.446Z,3.22
2022-08-03T12:42:42.249Z,2.65
2022-08-03T12:45:27.877Z,2.20
2022-08-03T12:47:59.387Z,4.60
2022-08-03T12:50:28.823Z,2.60
2022-08-03T12:52:59.999Z,2.35
2022-08-03T12:55:56.279Z,2.20
2022-08-03T12:58:35.458Z,2.20
2022-08-03T13:01:13.685Z,2.28
2022-08-03T13:03:49.832Z,2.97
2022-08-03T13:06:24.588Z,2.53
2022-08-03T13:09:05.852Z,2.50
2022-08-03T13:11:57.982Z,3.17
2022-08-03T13:14:27.139Z,2.65
2022-08-03T13:16:59.167Z,2.40
2022-08-03T13:19:30.261Z,2.50
2022-08-03T13:22:03.994Z,2.22
2022-08-03T13:24:33.204Z,2.25
2022-08-03T13:28:00.988Z,2.13
2022-08-03T13:29:54.959Z,2.70
2022-08-03T13:32:24.966Z,2.25
2022-08-03T13:34:55.715Z,2.22
2022-08-03T13:37:26.980Z,2.50
2022-08-03T13:39:59.346Z,1.98
2022-08-03T13:42:31.727Z,2.22
2022-08-03T13:45:02.889Z,2.45
2022-08-03T13:47:35.178Z,2.17
2022-08-03T13:52:35.503Z,2.38
2022-08-03T13:55:07.466Z,2.83
2022-08-03T13:58:03.795Z,1.77
2022-08-03T14:00:28.694Z,2.53
2022-08-03T14:03:13.426Z,3.47
2022-08-03T14:05:45.289Z,2.78
2022-08-03T14:08:14.154Z,3.15
2022-08-03T14:10:46.240Z,2.28
2022-08-03T14:13:18.163Z,3.28
2022-08-03T14:15:52.477Z,2.17
2022-08-03T14:18:28.445Z,1.70
2022-08-03T14:21:06.201Z,2.97
2022-08-03T14:23:39.524Z,2.58
2022-08-03T14:26:11.162Z,3.20
2022-08-03T14:28:41.713Z,2.10
2022-08-03T14:32:09.230Z,2.03
2022-08-03T14:34:12.302Z,2.20
2022-08-03T14:36:40.663Z,2.25
2022-08-03T14:39:11.760Z,2.22
2022-08-03T14:41:40.427Z,2.03
2022-08-03T14:44:08.920Z,2.85
2022-08-03T14:46:39.436Z,2.70
2022-08-03T14:50:38.080Z,1.90
2022-08-03T14:52:02.141Z,2.90
2022-08-03T14:54:33.253Z,2.00
2022-08-03T14:57:03.798Z,2.67
2022-08-03T14:59:56.898Z,2.35
2022-08-03T15:02:26.146Z,1.92
2022-08-03T15:04:57.453Z,2.67
2022-08-03T15:07:31.285Z,2.92
2022-08-03T15:10:02.550Z,2.35
2022-08-03T15:12:32.461Z,1.90
2022-08-03T15:15:03.333Z,2.40
2022-08-03T15:17:31.649Z,2.17
2022-08-03T15:20:25.467Z,2.08
2022-08-03T15:22:53.827Z,2.63
2022-08-03T15:26:31.583Z,2.55
2022-08-03T15:28:12.662Z,2.25
2022-08-03T15:30:42.253Z,2.88
2022-08-03T15:33:10.820Z,2.47
2022-08-03T15:35:42.212Z,2.78
2022-08-03T15:38:14.228Z,2.17
2022-08-03T15:40:42.600Z,2.22
2022-08-03T15:43:11.361Z,2.28
2022-08-03T15:45:42.993Z,1.88
2022-08-03T15:48:14.275Z,2.45
2022-08-03T15:50:45.335Z,2.17
2022-08-03T15:53:17.410Z,3.35
2022-08-03T15:55:48.139Z,2.22
2022-08-03T15:59:03.268Z,1.90
2022-08-03T16:01:05.262Z,2.03
2022-08-03T16:03:35.221Z,2.55
2022-08-03T16:06:04.409Z,1.90
2022-08-03T16:08:34.626Z,2.60
2022-08-03T16:11:03.193Z,2.22
2022-08-03T16:14:13.873Z,2.50
2022-08-03T16:16:19.906Z,3.20
2022-08-03T16:18:48.227Z,4.40
2022-08-03T16:21:19.390Z,5.78
2022-08-03T16:23:51.511Z,2.83
2022-08-03T16:26:20.648Z,2.65
2022-08-03T16:28:48.949Z,2.47
2022-08-03T16:31:17.296Z,2.88
2022-08-03T16:33:45.671Z,2.30
2022-08-03T16:36:14.038Z,3.60
2022-08-03T16:38:42.404Z,2.30
2022-08-03T16:41:12.071Z,1.98
2022-08-03T16:43:40.388Z,2.35
2022-08-03T16:46:08.754Z,2.30
2022-08-03T16:48:37.045Z,2.38
2022-08-03T16:51:05.373Z,2.40
2022-08-03T16:54:05.458Z,1.65
2022-08-03T16:56:25.352Z,2.80
2022-08-03T16:58:54.265Z,4.70
2022-08-03T17:01:24.992Z,3.83
2022-08-03T17:04:04.590Z,2.35
2022-08-03T17:06:36.162Z,2.30
2022-08-03T17:09:08.362Z,2.00
2022-08-03T17:11:46.713Z,2.13
2022-08-03T17:14:16.972Z,2.22
2022-08-03T17:16:52.197Z,2.05
2022-08-03T17:19:23.170Z,3.65
2022-08-03T17:21:55.805Z,2.80
2022-08-03T17:24:29.211Z,2.20
2022-08-03T17:27:00.545Z,2.53
2022-08-03T17:29:30.068Z,3.85
2022-08-03T17:31:58.497Z,2.42
2022-08-03T17:34:26.947Z,2.40
2022-08-03T17:37:04.407Z,3.17
2022-08-03T17:42:30.363Z,2.33
2022-08-03T17:45:02.502Z,3.30
2022-08-03T17:47:42.949Z,2.33
2022-08-03T17:50:24.275Z,3.08
2022-08-03T17:52:54.137Z,2.70
2022-08-03T17:55:55.384Z,2.05
2022-08-03T17:58:15.438Z,2.88
2022-08-03T18:01:02.953Z,2.70
2022-08-03T18:03:57.751Z,2.40
2022-08-03T18:06:28.583Z,2.63
2022-08-03T18:08:59.976Z,2.30
2022-08-03T18:11:35.884Z,2.42
2022-08-03T18:14:16.634Z,2.08
2022-08-03T18:16:46.550Z,2.70
2022-08-03T18:19:15.773Z,2.50
2022-08-03T18:22:02.766Z,2.75
2022-08-03T18:24:32.559Z,3.85
2022-08-03T18:27:02.604Z,2.65
2022-08-03T18:29:33.670Z,2.75
2022-08-03T18:32:05.315Z,2.17
2022-08-03T18:34:37.014Z,2.50
2022-08-03T18:37:25.642Z,3.47
2022-08-03T18:39:58.118Z,2.20
2022-08-03T18:42:27.229Z,2.88
2022-08-03T18:44:57.336Z,6.63
2022-08-03T18:47:50.867Z,2.50
2022-08-03T18:50:23.966Z,4.88
2022-08-03T18:52:55.985Z,4.40
2022-08-03T18:55:32.924Z,6.10
2022-08-03T18:58:07.754Z,5.40
2022-08-03T19:00:54.692Z,5.18
2022-08-03T19:03:43.326Z,4.55
2022-08-03T19:06:20.514Z,4.35
2022-08-03T19:08:50.902Z,11.00
2022-08-03T19:11:28.134Z,8.05
2022-08-03T19:13:59.216Z,3.30
2022-08-03T19:16:34.275Z,2.47
2022-08-03T19:19:02.785Z,2.80
2022-08-03T19:21:31.717Z,2.92
2022-08-03T19:24:06.630Z,4.80
2022-08-03T19:26:39.529Z,3.35
2022-08-03T19:29:14.715Z,3.83
2022-08-03T19:31:59.160Z,3.03
2022-08-03T19:34:29.771Z,3.55
2022-08-03T19:36:59.199Z,3.67
2022-08-03T19:39:28.246Z,3.20
2022-08-03T19:42:08.067Z,2.95
2022-08-03T19:44:41.149Z,3.33
2022-08-03T19:47:17.096Z,4.15
2022-08-03T19:50:04.931Z,4.13
2022-08-03T19:52:36.489Z,3.67
2022-08-03T19:55:06.793Z,5.70
2022-08-03T19:57:36.603Z,3.22
2022-08-03T20:00:05.999Z,5.78
2022-08-03T20:02:36.175Z,3.28
2022-08-03T20:05:04.547Z,3.10
2022-08-03T20:07:47.583Z,2.75
2022-08-03T20:12:45.480Z,4.00
2022-08-03T20:15:13.830Z,6.47
2022-08-03T20:17:55.440Z,4.55
2022-08-03T20:20:27.216Z,4.45
2022-08-03T20:25:48.965Z,2.88
2022-08-03T20:28:27.779Z,3.55
2022-08-03T20:30:58.351Z,4.03
2022-08-03T20:33:46.537Z,3.20
2022-08-03T20:36:17.857Z,4.85
2022-08-03T20:38:47.859Z,3.20
2022-08-03T20:41:16.751Z,7.97
2022-08-03T20:43:45.189Z,4.00
2022-08-03T20:46:29.018Z,6.85
2022-08-03T20:49:04.715Z,4.93
2022-08-03T20:51:52.698Z,4.85
2022-08-03T20:54:30.505Z,4.07
2022-08-03T20:57:04.354Z,4.22
2022-08-03T20:59:50.154Z,5.20
2022-08-03T21:02:29.650Z,4.07
2022-08-03T21:05:03.767Z,4.07
2022-08-03T21:08:03.949Z,4.25
2022-08-03T21:10:28.637Z,4.38
2022-08-03T21:13:03.879Z,3.42
2022-08-03T21:13:12.546Z,5.15
2022-08-03T21:16:03.196Z,5.47
2022-08-03T21:18:34.498Z,5.20
2022-08-03T21:21:05.035Z,4.97
2022-08-03T21:23:40.493Z,3.53
2022-08-03T21:26:17.934Z,4.22
2022-08-03T21:28:47.304Z,3.67
2022-08-03T21:31:22.362Z,4.68
2022-08-03T21:33:54.816Z,4.40
2022-08-03T21:36:24.647Z,3.33
2022-08-03T21:38:57.252Z,4.03
2022-08-03T21:41:27.376Z,3.90
2022-08-03T21:43:56.057Z,5.55
2022-08-03T21:46:24.916Z,3.70
2022-08-03T21:48:55.702Z,5.05
2022-08-03T21:51:26.231Z,5.45
2022-08-03T21:54:03.054Z,6.60
2022-08-03T21:56:36.869Z,6.30
2022-08-03T21:59:06.662Z,4.82
2022-08-03T22:01:36.385Z,7.45
2022-08-03T22:04:07.376Z,4.15
2022-08-03T22:06:42.489Z,4.07
2022-08-03T22:09:11.008Z,3.75
2022-08-03T22:11:39.716Z,4.55
2022-08-03T22:14:08.200Z,3.83
2022-08-03T22:16:36.716Z,4.03
2022-08-03T22:19:05.050Z,4.30
2022-08-03T22:21:36.066Z,3.90
2022-08-03T22:24:06.998Z,4.10
2022-08-03T22:26:37.305Z,4.05
2022-08-03T22:29:08.630Z,3.90
2022-08-03T22:31:58.439Z,3.75
2022-08-03T22:34:27.533Z,4.30
2022-08-03T22:37:00.229Z,4.22
2022-08-03T22:39:30.882Z,4.60
2022-08-03T22:41:59.850Z,3.53
2022-08-03T22:44:28.797Z,6.32
2022-08-03T22:46:57.453Z,4.00
2022-08-03T22:49:26.174Z,4.53
2022-08-03T22:51:55.178Z,4.55
2022-08-03T22:54:24.607Z,4.20
2022-08-03T22:56:54.427Z,5.28
2022-08-03T22:59:41.042Z,4.93
2022-08-03T23:02:20.191Z,5.35
2022-08-03T23:04:51.652Z,5.18
2022-08-03T23:07:22.884Z,5.22
2022-08-03T23:09:51.421Z,7.63
2022-08-03T23:12:21.458Z,4.47
2022-08-03T23:14:54.159Z,6.25
2022-08-03T23:17:23.550Z,4.87
2022-08-03T23:19:53.771Z,5.03
2022-08-03T23:22:30.043Z,6.07
2022-08-03T23:24:59.323Z,4.47
2022-08-03T23:27:29.407Z,4.65
2022-08-03T23:29:59.283Z,5.45
2022-08-03T23:32:28.256Z,4.57
2022-08-03T23:35:15.338Z,5.28
2022-08-03T23:38:03.926Z,3.88
2022-08-03T23:40:32.509Z,4.57
2022-08-03T23:43:02.988Z,4.43
2022-08-03T23:45:33.202Z,5.00
2022-08-03T23:48:01.602Z,4.00
2022-08-03T23:50:32.252Z,5.55
2022-08-03T23:53:05.187Z,6.13
2022-08-03T23:55:42.192Z,4.40
2022-08-03T23:58:19.994Z,3.97
